Sunbright, Tennessee
Current Conditions -  °F | °C
As of 2:53 AM on Thursday 29 Jan 2015 (Local Time) from KOQT Reporting Station
Clear Clear  
Wind Chill: 29°   Ceiling: Unl
Heat Index: 29°   Visibility: 10mi
Dew Point: 23°   Wind: 0mph
Humidity: 78%   Direction: NA
Pressure: 30.25"   Gusts: NA
Location:  36.24°N, 84.67°W
Report Text: KOQT 290753Z AUTO 00000KT 10SM CLR M02/M05 A3025 RMK AO2 SLP257 T10171050
Loading
Personal Weather Stations






























Interactive Weather Map New forecast layout! Learn more

10-Day Weather Forecast

Advertisements
Track Severe Weather on mobile